Time;durP1;ratioP1;P1;durP2;ratioP2;P2;SDS_P1;SDS_P2;PMS_P1;PMS_P2;Temp;Humidity;BMP_temperature;BMP_pressure;BME280_temperature;BME280_humidity;BME280_pressure;Samples;Min_cycle;Max_cycle;Signal;HPM_P1;HPM_P2
2023/06/18 00:00:36;;;;;;;13.80;4.70;;;;;;;26.81;25.29;99339.16;5040262;28;20045;-67
2023/06/18 00:03:02;;;;;;;12.35;4.40;;;;;;;26.79;25.04;99337.78;5056760;28;20071;-67
2023/06/18 00:05:28;;;;;;;12.35;4.07;;;;;;;26.78;25.21;99338.88;5023747;28;20094;-67
2023/06/18 00:07:54;;;;;;;10.57;3.90;;;;;;;26.77;25.12;99337.25;5056606;28;20084;-68
2023/06/18 00:10:19;;;;;;;12.02;4.57;;;;;;;26.71;25.27;99336.41;5023856;28;20041;-67
2023/06/18 00:12:45;;;;;;;11.93;4.32;;;;;;;26.68;25.08;99336.13;5074081;28;20396;-68
2023/06/18 00:15:11;;;;;;;12.98;4.47;;;;;;;26.62;25.08;99331.75;5074163;28;20480;-67
2023/06/18 00:17:37;;;;;;;10.70;4.35;;;;;;;26.63;25.25;99334.22;5056357;28;20523;-67
2023/06/18 00:20:03;;;;;;;12.55;4.70;;;;;;;26.58;25.22;99338.78;5056557;28;20044;-67
2023/06/18 00:22:38;;;;;;;9.90;4.10;;;;;;;26.38;25.40;99318.59;5056890;28;20044;-67
2023/06/18 00:25:05;;;;;;;10.15;4.50;;;;;;;26.63;25.48;99345.13;5073192;28;20040;-67
2023/06/18 00:27:33;;;;;;;12.98;4.50;;;;;;;26.47;25.41;99337.94;5056625;28;20056;-67
2023/06/18 00:29:59;;;;;;;16.02;4.43;;;;;;;26.57;25.53;99339.88;5041165;28;20047;-67
2023/06/18 00:32:25;;;;;;;13.30;4.65;;;;;;;26.38;25.44;99340.38;5041091;28;20066;-68
2023/06/18 00:34:53;;;;;;;12.05;4.07;;;;;;;26.37;25.72;99336.00;5057515;28;20078;-67
2023/06/18 00:37:20;;;;;;;12.60;4.03;;;;;;;26.45;25.73;99332.78;5057392;28;20121;-67
2023/06/18 00:39:46;;;;;;;13.02;4.78;;;;;;;26.42;25.63;99327.03;5040044;28;20446;-67
2023/06/18 00:42:13;;;;;;;9.65;4.18;;;;;;;26.32;25.71;99332.47;5023591;28;20055;-67
2023/06/18 00:44:40;;;;;;;10.00;3.92;;;;;;;26.43;25.96;99332.22;5056255;28;20040;-68
2023/06/18 00:47:07;;;;;;;10.95;4.03;;;;;;;26.36;25.98;99336.28;5056200;28;20587;-67
2023/06/18 00:49:33;;;;;;;12.27;4.30;;;;;;;26.32;25.95;99337.91;5072414;28;20102;-67
2023/06/18 00:52:00;;;;;;;13.15;4.15;;;;;;;26.29;26.07;99339.25;5072316;28;20063;-68
2023/06/18 00:54:28;;;;;;;9.35;3.85;;;;;;;26.52;26.06;99333.31;5023449;28;20050;-68
2023/06/18 00:56:57;;;;;;;9.52;3.88;;;;;;;26.30;25.54;99326.44;5041731;28;20049;-67
2023/06/18 00:59:23;;;;;;;9.07;3.58;;;;;;;26.28;25.73;99336.78;5074004;28;20113;-67
2023/06/18 01:01:53;;;;;;;9.98;3.80;;;;;;;26.61;25.91;99344.53;5057016;28;20045;-67
2023/06/18 01:04:20;;;;;;;19.27;3.72;;;;;;;26.45;26.06;99340.13;5038841;28;20041;-68
2023/06/18 01:06:51;;;;;;;6.88;3.58;;;;;;;26.34;25.96;99335.72;5055984;28;20058;-67
2023/06/18 01:09:21;;;;;;;9.57;3.97;;;;;;;26.47;25.74;99354.28;5071338;28;20044;-68
2023/06/18 01:11:54;;;;;;;8.43;3.72;;;;;;;26.56;25.92;99363.56;5072050;28;20070;-67
2023/06/18 01:14:21;;;;;;;13.25;4.07;;;;;;;26.42;25.73;99355.09;5039049;28;20097;-67
2023/06/18 01:16:49;;;;;;;7.57;3.90;;;;;;;26.52;25.63;99362.47;5037638;28;20607;-67
2023/06/18 01:19:29;;;;;;;8.27;3.40;;;;;;;26.69;25.52;99362.28;5037440;28;20056;-67
2023/06/18 01:22:01;;;;;;;8.63;3.53;;;;;;;26.53;25.65;99369.56;5071066;28;20052;-67
2023/06/18 01:24:30;;;;;;;12.02;4.05;;;;;;;26.58;25.84;99366.84;5030720;28;20111;-67
2023/06/18 01:26:57;;;;;;;8.23;3.78;;;;;;;26.43;25.72;99364.09;4981829;28;20060;-67
2023/06/18 01:29:26;;;;;;;9.82;3.95;;;;;;;26.56;25.98;99366.31;5014724;28;20132;-67
2023/06/18 01:31:52;;;;;;;11.68;3.78;;;;;;;26.46;25.82;99367.09;5014530;28;20528;-67
2023/06/18 01:34:18;;;;;;;8.40;4.00;;;;;;;26.49;25.63;99372.00;4997974;28;20397;-67
2023/06/18 01:37:03;;;;;;;8.88;3.45;;;;;;;26.77;25.29;99378.13;4981569;28;20076;-67
2023/06/18 01:39:38;;;;;;;7.85;3.50;;;;;;;26.48;25.70;99381.25;4982566;28;20151;-67
2023/06/18 01:42:16;;;;;;;6.45;3.42;;;;;;;26.90;25.41;99386.59;4981114;28;20049;-67
2023/06/18 01:44:46;;;;;;;7.25;3.50;;;;;;;26.85;25.41;99386.56;5014375;28;20497;-68
2023/06/18 01:47:14;;;;;;;9.52;3.53;;;;;;;26.89;25.35;99382.25;5031533;28;20473;-68
2023/06/18 01:49:40;;;;;;;9.52;3.65;;;;;;;26.80;25.51;99385.75;4997532;28;20049;-68
2023/06/18 01:52:08;;;;;;;10.52;3.88;;;;;;;27.07;25.29;99391.78;4997841;28;20061;-68
2023/06/18 01:54:34;;;;;;;9.10;3.90;;;;;;;27.07;25.20;99395.34;5005086;28;20064;-67
2023/06/18 01:57:00;;;;;;;7.82;3.28;;;;;;;27.12;24.96;99394.53;5038157;28;20040;-68
2023/06/18 01:59:26;;;;;;;7.78;3.63;;;;;;;27.11;24.92;99399.16;5038079;28;20070;-67
2023/06/18 02:01:52;;;;;;;9.07;4.03;;;;;;;27.12;24.57;99400.81;5037498;28;20048;-67
2023/06/18 02:04:20;;;;;;;10.95;3.63;;;;;;;27.20;24.82;99402.19;5022217;28;20438;-67
2023/06/18 02:06:46;;;;;;;10.45;3.60;;;;;;;27.20;24.54;99397.53;5037880;28;20048;-67
2023/06/18 02:09:12;;;;;;;9.00;3.70;;;;;;;27.26;24.32;99398.41;5038305;28;20033;-67
2023/06/18 02:11:39;;;;;;;6.68;3.40;;;;;;;27.24;24.36;99386.91;5038338;28;20047;-68
2023/06/18 02:14:05;;;;;;;8.23;3.60;;;;;;;27.20;24.53;99397.53;5054379;28;20036;-68
2023/06/18 02:16:31;;;;;;;6.57;3.47;;;;;;;27.20;24.54;99400.25;5037987;28;20049;-68
2023/06/18 02:18:58;;;;;;;11.77;3.60;;;;;;;27.22;24.65;99399.97;5039499;28;20514;-68
2023/06/18 02:21:23;;;;;;;14.25;3.42;;;;;;;27.21;24.62;99398.34;5075311;28;20032;-67
2023/06/18 02:23:49;;;;;;;11.18;3.70;;;;;;;27.17;24.25;99398.06;5059722;28;20051;-68
2023/06/18 02:26:16;;;;;;;11.45;4.13;;;;;;;27.09;23.93;99398.63;5075530;28;20044;-68
2023/06/18 02:28:43;;;;;;;9.77;3.67;;;;;;;27.02;24.21;99389.03;5041975;28;20054;-68
2023/06/18 02:31:10;;;;;;;7.20;3.67;;;;;;;27.34;24.18;99406.84;5041685;28;20072;-68
2023/06/18 02:33:36;;;;;;;12.13;3.92;;;;;;;27.23;24.21;99410.63;5041379;28;20388;-68
2023/06/18 02:36:02;;;;;;;14.23;3.50;;;;;;;27.11;24.01;99406.53;5074862;28;20044;-68
2023/06/18 02:38:28;;;;;;;13.63;3.60;;;;;;;27.24;24.02;99406.00;5058225;28;20052;-67
2023/06/18 02:40:55;;;;;;;10.10;3.53;;;;;;;27.28;24.15;99412.56;5041608;28;20132;-68
2023/06/18 02:43:22;;;;;;;17.23;3.83;;;;;;;27.32;24.03;99413.66;5041824;28;20212;-67
2023/06/18 02:45:50;;;;;;;10.68;3.90;;;;;;;27.40;24.05;99407.69;5074588;28;20044;-67
2023/06/18 02:48:16;;;;;;;14.95;3.78;;;;;;;27.50;23.74;99419.41;5058600;28;20484;-67
2023/06/18 02:50:42;;;;;;;10.82;4.03;;;;;;;27.58;24.12;99421.59;5041814;28;20040;-67
2023/06/18 02:53:07;;;;;;;7.95;3.67;;;;;;;27.66;23.67;99414.78;5041135;28;20032;-67
2023/06/18 02:55:33;;;;;;;10.02;3.33;;;;;;;27.72;23.62;99416.41;5025003;28;20051;-68
2023/06/18 02:58:02;;;;;;;9.00;3.55;;;;;;;27.94;23.75;99409.56;5042230;28;20133;-67
2023/06/18 03:00:28;;;;;;;9.02;3.42;;;;;;;27.94;23.38;99423.22;5057926;28;20036;-68
2023/06/18 03:02:54;;;;;;;11.27;3.90;;;;;;;27.93;23.41;99424.31;5041072;28;20473;-67
2023/06/18 03:05:25;;;;;;;14.88;3.97;;;;;;;28.06;23.47;99427.56;5042178;28;20488;-68
2023/06/18 03:07:51;;;;;;;11.95;3.95;;;;;;;28.08;23.10;99430.84;5057804;28;20464;-67
2023/06/18 03:10:18;;;;;;;9.88;3.70;;;;;;;28.14;23.47;99427.81;5074324;28;20476;-68
2023/06/18 03:12:47;;;;;;;10.18;4.30;;;;;;;28.24;23.67;99430.53;5041314;28;20404;-67
2023/06/18 03:15:33;;;;;;;10.57;3.92;;;;;;;28.26;23.12;99422.88;5074232;28;20044;-68
2023/06/18 03:17:59;;;;;;;9.40;4.10;;;;;;;28.35;23.28;99428.56;5040977;28;20047;-67
2023/06/18 03:20:27;;;;;;;11.18;4.20;;;;;;;28.27;23.39;99418.22;5025230;28;20058;-67
2023/06/18 03:22:56;;;;;;;9.57;4.15;;;;;;;28.33;23.21;99438.97;5025535;28;20112;-67
2023/06/18 03:25:22;;;;;;;16.05;4.13;;;;;;;28.16;23.33;99417.44;5057709;28;20040;-67
2023/06/18 03:27:49;;;;;;;12.45;3.88;;;;;;;28.30;23.45;99432.16;5057469;28;20051;-67
2023/06/18 03:30:15;;;;;;;10.20;4.22;;;;;;;28.21;23.57;99419.31;5024997;28;20045;-67
2023/06/18 03:32:41;;;;;;;11.82;4.30;;;;;;;28.26;23.50;99430.25;5073212;28;20055;-67
2023/06/18 03:35:07;;;;;;;13.02;4.53;;;;;;;28.25;23.32;99421.22;5074671;28;20058;-68
2023/06/18 03:37:36;;;;;;;13.95;4.60;;;;;;;28.22;23.34;99426.41;5042180;28;20032;-67
2023/06/18 03:40:03;;;;;;;12.10;4.65;;;;;;;28.38;23.84;99434.31;5041948;28;20131;-67
2023/06/18 03:42:30;;;;;;;20.00;4.55;;;;;;;28.26;23.45;99431.06;5024449;28;20369;-67
2023/06/18 03:44:55;;;;;;;10.20;4.05;;;;;;;28.28;23.48;99414.41;5057151;28;20097;-67
2023/06/18 03:47:21;;;;;;;14.57;4.10;;;;;;;28.38;23.29;99431.59;5056959;28;20373;-67
2023/06/18 03:49:48;;;;;;;11.05;3.67;;;;;;;28.44;23.50;99435.94;5040879;28;20048;-67
2023/06/18 03:52:15;;;;;;;9.35;3.65;;;;;;;28.57;23.17;99434.53;5024054;28;20136;-67
2023/06/18 03:54:41;;;;;;;16.65;4.10;;;;;;;28.73;22.76;99439.66;5056818;28;20123;-67
2023/06/18 03:57:08;;;;;;;13.68;3.80;;;;;;;28.92;22.67;99440.63;5056822;28;20498;-67
2023/06/18 03:59:34;;;;;;;12.05;3.67;;;;;;;29.10;22.77;99447.41;5023464;28;20076;-67
2023/06/18 04:02:02;;;;;;;10.68;3.83;;;;;;;29.30;22.70;99448.13;5055993;28;20129;-68
2023/06/18 04:04:28;;;;;;;15.30;3.92;;;;;;;29.49;22.30;99445.53;5038889;28;20079;-67
2023/06/18 04:06:54;;;;;;;9.43;3.70;;;;;;;29.68;21.79;99457.41;5039058;28;20143;-67
2023/06/18 04:09:19;;;;;;;11.77;3.22;;;;;;;29.64;21.48;99455.53;5022620;28;20522;-67
2023/06/18 04:11:46;;;;;;;8.55;3.17;;;;;;;29.75;20.90;99457.94;5038975;28;20506;-67
2023/06/18 04:14:12;;;;;;;10.43;3.30;;;;;;;29.96;20.60;99464.03;5022821;28;20467;-67
2023/06/18 04:16:39;;;;;;;10.80;2.97;;;;;;;29.73;20.74;99456.56;5055314;28;20051;-67
2023/06/18 04:19:05;;;;;;;19.38;3.50;;;;;;;29.26;20.61;99466.19;5022751;28;20131;-67
2023/06/18 04:21:31;;;;;;;15.88;3.08;;;;;;;29.43;20.42;99463.09;5073390;28;20405;-68
2023/06/18 04:23:58;;;;;;;16.15;3.70;;;;;;;29.46;20.55;99451.56;5055582;28;20084;-67
2023/06/18 04:26:26;;;;;;;14.68;3.17;;;;;;;28.82;21.14;99459.00;5038621;28;20135;-68
2023/06/18 04:28:52;;;;;;;15.73;3.50;;;;;;;28.81;21.19;99443.72;5022260;28;20125;-67
2023/06/18 04:31:19;;;;;;;18.52;3.78;;;;;;;28.97;21.32;99450.75;5022349;28;20080;-67
2023/06/18 04:33:45;;;;;;;27.73;4.22;;;;;;;28.95;21.68;99456.50;5021897;28;20040;-67
2023/06/18 04:36:11;;;;;;;20.17;4.25;;;;;;;29.16;21.28;99457.22;5055833;28;20060;-67
2023/06/18 04:38:38;;;;;;;17.17;4.25;;;;;;;28.96;21.68;99449.09;5039393;28;20040;-67
2023/06/18 04:41:04;;;;;;;24.63;4.22;;;;;;;29.05;21.78;99456.47;5057229;28;20052;-67
2023/06/18 04:43:30;;;;;;;22.75;4.35;;;;;;;29.27;21.50;99467.84;5040289;28;20097;-67
2023/06/18 04:45:56;;;;;;;27.17;4.25;;;;;;;29.32;21.56;99459.56;5039458;28;20426;-67
2023/06/18 04:48:23;;;;;;;22.48;3.90;;;;;;;29.40;21.34;99469.09;5023017;28;20036;-67
2023/06/18 04:50:50;;;;;;;17.00;3.67;;;;;;;29.52;21.30;99470.38;5022858;28;20047;-67
2023/06/18 04:53:17;;;;;;;17.85;3.70;;;;;;;29.63;21.34;99468.41;5039401;28;20135;-67
2023/06/18 04:55:44;;;;;;;11.32;3.42;;;;;;;29.93;21.00;99475.56;5022902;28;20066;-67
2023/06/18 04:58:11;;;;;;;11.88;3.30;;;;;;;30.15;20.45;99478.63;5056273;28;20450;-67
2023/06/18 05:00:39;;;;;;;18.23;3.55;;;;;;;30.23;20.30;99481.59;5039428;28;20040;-68
2023/06/18 05:03:05;;;;;;;13.02;3.47;;;;;;;30.18;20.10;99465.19;5039070;28;20056;-67
2023/06/18 05:05:31;;;;;;;7.13;3.00;;;;;;;30.03;20.42;99461.78;5039106;28;20048;-67
2023/06/18 05:07:58;;;;;;;8.48;3.03;;;;;;;30.27;20.13;99470.88;5055717;28;20126;-68
2023/06/18 05:10:26;;;;;;;10.18;2.92;;;;;;;30.39;20.61;99471.28;5039250;28;20040;-67
2023/06/18 05:12:53;;;;;;;8.13;2.92;;;;;;;30.38;20.30;99467.75;5054621;28;20048;-67
2023/06/18 05:15:20;;;;;;;9.02;2.85;;;;;;;30.39;20.30;99463.06;5054178;28;20059;-67
2023/06/18 05:17:46;;;;;;;7.95;2.63;;;;;;;30.33;20.29;99458.75;4998363;28;20053;-68
2023/06/18 05:20:16;;;;;;;7.43;2.85;;;;;;;30.30;20.11;99471.13;4998985;28;20082;-67
2023/06/18 05:22:43;;;;;;;5.95;2.60;;;;;;;30.32;20.08;99463.41;4982251;28;20053;-67
2023/06/18 05:25:11;;;;;;;14.13;2.97;;;;;;;30.39;20.10;99471.28;4982610;28;20045;-69
2023/06/18 05:27:37;;;;;;;8.48;3.58;;;;;;;30.43;20.22;99473.16;4982204;28;20127;-67
2023/06/18 05:30:04;;;;;;;8.50;2.90;;;;;;;30.55;20.09;99483.72;4981898;28;20045;-67
2023/06/18 05:32:33;;;;;;;8.97;3.03;;;;;;;30.51;19.93;99471.69;4998773;28;20140;-67
2023/06/18 05:35:03;;;;;;;9.98;2.70;;;;;;;30.58;19.74;99480.41;4966829;28;20175;-67
2023/06/18 05:37:33;;;;;;;12.82;2.58;;;;;;;30.50;19.31;99478.28;4982618;28;20409;-67
2023/06/18 05:39:59;;;;;;;5.07;2.50;;;;;;;30.50;18.91;99473.63;5014146;28;20052;-67
2023/06/18 05:42:25;;;;;;;6.30;2.42;;;;;;;30.67;18.81;99475.91;5014209;28;20531;-67
2023/06/18 05:44:52;;;;;;;5.05;2.10;;;;;;;30.58;18.50;99461.19;5015870;28;20059;-67
2023/06/18 05:47:18;;;;;;;5.38;2.33;;;;;;;30.60;18.02;99478.97;5000962;28;20084;-67
2023/06/18 05:49:44;;;;;;;10.43;3.30;;;;;;;30.69;18.19;99479.16;5019043;28;20056;-68
2023/06/18 05:52:10;;;;;;;3.90;2.53;;;;;;;30.71;17.90;99477.75;5037306;28;20048;-68
2023/06/18 05:54:36;;;;;;;10.70;2.88;;;;;;;30.82;17.71;99479.31;5036829;28;20057;-67
2023/06/18 05:57:02;;;;;;;4.38;2.55;;;;;;;30.92;17.45;99475.63;5036413;28;20333;-67
2023/06/18 05:59:28;;;;;;;7.32;2.47;;;;;;;30.82;17.62;99456.53;5020632;28;20037;-68
2023/06/18 06:02:02;;;;;;;6.72;2.53;;;;;;;30.86;17.58;99472.09;5005956;28;20469;-67
2023/06/18 06:04:29;;;;;;;8.38;3.05;;;;;;;30.87;17.69;99478.41;5053618;28;20139;-67
2023/06/18 06:06:55;;;;;;;10.35;2.95;;;;;;;30.91;17.80;99472.03;5037052;28;20193;-68
2023/06/18 06:09:21;;;;;;;7.32;3.03;;;;;;;31.05;17.96;99481.19;5021157;28;20052;-67
2023/06/18 06:11:48;;;;;;;5.82;2.45;;;;;;;31.06;17.93;99476.53;5037618;28;20048;-68
2023/06/18 06:14:15;;;;;;;8.15;2.97;;;;;;;31.10;18.00;99477.56;5005362;28;20468;-68
2023/06/18 06:16:42;;;;;;;16.02;3.75;;;;;;;31.12;17.85;99476.13;5038552;28;20464;-70
2023/06/18 06:19:08;;;;;;;11.57;3.92;;;;;;;31.20;18.19;99471.13;5020573;28;20083;-67
2023/06/18 06:21:34;;;;;;;13.10;3.20;;;;;;;31.32;17.83;99466.84;5020397;28;20037;-68
2023/06/18 06:24:00;;;;;;;10.93;2.90;;;;;;;31.34;17.56;99467.34;5020632;28;20373;-67
2023/06/18 06:26:26;;;;;;;4.70;2.60;;;;;;;31.32;17.58;99460.53;5020409;28;20056;-67
2023/06/18 06:28:53;;;;;;;6.65;2.92;;;;;;;31.52;17.48;99472.03;5070126;28;20052;-68
2023/06/18 06:31:20;;;;;;;8.77;3.05;;;;;;;31.48;17.28;99460.00;5038200;28;20044;-67
2023/06/18 06:33:46;;;;;;;13.15;2.88;;;;;;;31.56;17.35;99461.25;5022283;28;20044;-68
2023/06/18 06:36:13;;;;;;;8.45;2.78;;;;;;;31.76;16.92;99478.22;5038857;28;20040;-67
2023/06/18 06:38:39;;;;;;;10.05;2.95;;;;;;;31.87;16.99;99479.72;5037769;28;20049;-67
2023/06/18 06:41:05;;;;;;;8.20;2.60;;;;;;;31.25;16.13;99477.34;5021455;28;20125;-67
2023/06/18 06:43:31;;;;;;;10.43;2.78;;;;;;;30.83;16.50;99471.91;5070755;28;20565;-67
2023/06/18 06:46:10;;;;;;;6.10;3.10;;;;;;;30.94;16.58;99470.63;5039488;28;20052;-68
2023/06/18 06:49:06;;;;;;;9.02;2.65;;;;;;;31.22;16.96;99460.63;5043814;28;20049;-67
2023/06/18 06:51:36;;;;;;;6.97;2.65;;;;;;;31.62;16.74;99463.63;5070660;28;20044;-67
2023/06/18 06:54:10;;;;;;;11.00;3.10;;;;;;;31.58;16.74;99470.84;5038496;28;20044;-67
2023/06/18 06:56:37;;;;;;;10.23;2.80;;;;;;;31.53;16.61;99468.16;5021015;28;20045;-67
2023/06/18 06:59:03;;;;;;;10.27;2.85;;;;;;;31.62;17.08;99469.09;5053889;28;20391;-68
2023/06/18 07:01:29;;;;;;;11.77;2.80;;;;;;;31.89;16.58;99471.97;5020900;28;20135;-67
2023/06/18 07:03:58;;;;;;;11.02;2.92;;;;;;;32.25;16.43;99464.72;5053800;28;20064;-68
2023/06/18 07:06:24;;;;;;;9.52;3.08;;;;;;;32.32;15.98;99467.09;5021959;28;20044;-69
2023/06/18 07:08:51;;;;;;;18.02;3.63;;;;;;;32.60;16.25;99469.56;5040913;28;20048;-67
2023/06/18 07:11:18;;;;;;;7.60;2.60;;;;;;;32.83;15.91;99472.41;5074264;28;20073;-68
2023/06/18 07:13:44;;;;;;;12.13;2.90;;;;;;;32.89;15.26;99462.97;5041224;28;20045;-68
2023/06/18 07:16:10;;;;;;;13.20;3.20;;;;;;;32.89;15.13;99466.50;5040996;28;20094;-68
2023/06/18 07:18:36;;;;;;;7.32;2.75;;;;;;;33.34;14.74;99470.19;5057680;28;20448;-68
2023/06/18 07:21:02;;;;;;;6.05;2.80;;;;;;;33.73;14.27;99471.19;5025954;28;20040;-68
2023/06/18 07:23:28;;;;;;;7.53;2.70;;;;;;;34.38;14.43;99468.72;5059710;28;20047;-68
2023/06/18 07:25:54;;;;;;;8.98;2.83;;;;;;;34.72;13.72;99470.78;5060084;28;20120;-68
2023/06/18 07:28:20;;;;;;;5.88;2.85;;;;;;;35.15;13.17;99474.50;5024551;28;20532;-68
2023/06/18 07:30:46;;;;;;;7.53;2.95;;;;;;;35.66;12.95;99477.28;5057201;28;20044;-68
2023/06/18 07:33:12;;;;;;;14.77;3.15;;;;;;;36.35;12.39;99472.47;5040232;28;20045;-68
2023/06/18 07:35:38;;;;;;;8.02;2.72;;;;;;;37.19;11.85;99473.19;5023929;28;20068;-68
2023/06/18 07:38:04;;;;;;;8.60;3.10;;;;;;;38.14;11.03;99462.94;5024123;28;20041;-69
2023/06/18 07:40:33;;;;;;;6.13;2.78;;;;;;;39.20;10.35;99459.75;5023990;28;20036;-68
2023/06/18 07:43:01;;;;;;;6.90;3.13;;;;;;;40.84;9.76;99470.31;5023880;28;20044;-67
2023/06/18 07:45:26;;;;;;;7.53;2.80;;;;;;;42.67;8.50;99458.16;5039615;28;20052;-69
2023/06/18 07:47:52;;;;;;;10.93;2.88;;;;;;;44.25;7.49;99474.28;5039647;28;20037;-69
2023/06/18 07:50:18;;;;;;;7.43;2.47;;;;;;;46.08;6.47;99474.31;5040064;28;20040;-69
2023/06/18 07:52:44;;;;;;;8.70;2.60;;;;;;;47.49;5.98;99463.81;5056558;28;20048;-69
2023/06/18 07:55:10;;;;;;;6.82;2.40;;;;;;;49.15;4.82;99474.75;5022908;28;20455;-69
2023/06/18 07:57:37;;;;;;;7.30;2.90;;;;;;;50.59;4.55;99472.84;5039336;28;20037;-69
2023/06/18 08:00:05;;;;;;;7.10;2.30;;;;;;;51.65;3.96;99469.66;5072452;28;20127;-69
2023/06/18 08:02:38;;;;;;;7.57;2.50;;;;;;;52.35;3.54;99472.13;5041302;28;20052;-70
2023/06/18 08:05:07;;;;;;;7.07;2.28;;;;;;;53.03;2.94;99465.09;5039616;28;20072;-70
2023/06/18 08:07:33;;;;;;;7.13;2.10;;;;;;;53.78;2.39;99463.75;5039687;28;20104;-70
2023/06/18 08:10:02;;;;;;;;;;;;;;;54.77;2.72;99456.44;5039772;28;20060;-70
2023/06/18 08:12:28;;;;;;;7.57;2.90;;;;;;;54.68;2.34;99448.63;5039862;28;20318;-70
2023/06/18 08:14:54;;;;;;;6.78;2.47;;;;;;;55.21;2.45;99468.75;5039289;28;20079;-68
2023/06/18 08:17:20;;;;;;;7.82;2.33;;;;;;;55.41;1.98;99452.09;5039290;28;20226;-70
2023/06/18 08:19:47;;;;;;;7.28;2.63;;;;;;;55.70;1.94;99450.53;5022591;28;20048;-70
2023/06/18 08:22:15;;;;;;;6.80;2.55;;;;;;;55.48;1.69;99443.31;5023213;28;20033;-70
2023/06/18 08:24:42;;;;;;;10.30;2.58;;;;;;;55.58;1.68;99434.34;5071243;28;20404;-70
2023/06/18 08:27:08;;;;;;;11.35;2.42;;;;;;;56.02;1.46;99444.38;5021831;28;20057;-70
2023/06/18 08:29:34;;;;;;;8.38;2.33;;;;;;;56.28;1.38;99440.06;5038609;28;20573;-70
2023/06/18 08:32:04;;;;;;;11.38;2.50;;;;;;;56.52;1.33;99446.00;5021821;28;20048;-70
2023/06/18 08:34:32;;;;;;;4.85;2.40;;;;;;;56.91;1.15;99452.88;5022152;28;20144;-70
2023/06/18 08:36:58;;;;;;;4.43;2.20;;;;;;;56.97;1.03;99437.53;5037779;28;20048;-69
2023/06/18 08:39:26;;;;;;;5.32;2.20;;;;;;;57.62;0.94;99434.91;5037628;28;20053;-70
2023/06/18 08:41:56;;;;;;;12.20;2.40;;;;;;;58.25;0.94;99425.31;5005437;28;20507;-71
2023/06/18 08:44:25;;;;;;;4.53;2.47;;;;;;;58.82;0.53;99434.66;5038060;28;20071;-71
2023/06/18 08:47:00;;;;;;;10.32;2.38;;;;;;;59.03;0.35;99440.06;5054315;28;20052;-71
2023/06/18 08:49:27;;;;;;;4.70;2.20;;;;;;;59.20;0.46;99425.22;5038123;28;20071;-70
2023/06/18 08:51:57;;;;;;;7.05;2.10;;;;;;;59.53;0.22;99428.72;4959439;28;20578;-70
2023/06/18 08:54:32;;;;;;;12.30;2.90;;;;;;;59.71;0.16;99434.28;4943564;28;20069;-70
2023/06/18 08:57:09;;;;;;;8.32;2.47;;;;;;;60.14;0.42;99430.56;4995160;28;20102;-70
2023/06/18 08:59:36;;;;;;;3.42;1.95;;;;;;;60.42;0.00;99423.16;4994522;28;20045;-70
2023/06/18 09:02:07;;;;;;;11.32;2.15;;;;;;;60.57;0.00;99423.06;4962664;28;20053;-70
2023/06/18 09:04:35;;;;;;;4.07;2.42;;;;;;;59.88;0.00;99418.16;4962383;28;20145;-71
2023/06/18 09:07:02;;;;;;;6.35;2.20;;;;;;;60.00;0.25;99417.03;4978785;28;20049;-70
2023/06/18 09:09:29;;;;;;;4.28;2.13;;;;;;;59.52;0.18;99409.94;4962137;28;20464;-70
2023/06/18 09:12:00;;;;;;;13.18;2.55;;;;;;;59.62;0.14;99400.78;4994438;28;20100;-70
2023/06/18 09:14:26;;;;;;;3.55;2.22;;;;;;;59.54;0.42;99411.03;4978143;28;20480;-71
2023/06/18 09:16:54;;;;;;;6.10;1.88;;;;;;;60.18;0.00;99406.09;5010767;28;20050;-70
2023/06/18 09:19:20;;;;;;;;;;;;;;;61.03;0.00;99400.94;4978935;28;20050;-70
2023/06/18 09:21:46;;;;;;;5.13;2.13;;;;;;;61.24;0.00;99397.53;4997002;28;20016;-70
2023/06/18 09:24:23;;;;;;;4.30;1.95;;;;;;;61.93;0.00;99408.59;5037085;28;20102;-70
2023/06/18 09:27:00;;;;;;;3.25;2.00;;;;;;;61.60;0.00;99398.91;5020627;28;20109;-70
2023/06/18 09:29:30;;;;;;;4.13;2.30;;;;;;;61.66;0.00;99394.78;5054414;28;20052;-71
2023/06/18 09:31:57;;;;;;;5.80;2.25;;;;;;;61.64;0.00;99394.50;5056341;28;20039;-70
2023/06/18 09:34:23;;;;;;;5.83;1.90;;;;;;;61.19;0.00;99389.63;5071122;28;20065;-69
2023/06/18 09:36:50;;;;;;;10.85;2.47;;;;;;;61.26;0.00;99394.13;5038731;28;20498;-70
2023/06/18 09:39:23;;;;;;;4.80;2.30;;;;;;;61.36;0.00;99398.44;5038403;28;20048;-69
2023/06/18 09:41:51;;;;;;;8.27;2.33;;;;;;;61.24;0.00;99385.25;5022097;28;20040;-69
2023/06/18 09:44:19;;;;;;;11.00;2.58;;;;;;;61.46;0.00;99380.47;5054773;28;20040;-69
2023/06/18 09:46:50;;;;;;;13.87;2.67;;;;;;;61.34;0.00;99375.13;5038063;28;20537;-69
2023/06/18 09:49:17;;;;;;;4.22;2.15;;;;;;;61.19;0.00;99385.97;5038382;28;20063;-72
2023/06/18 09:51:46;;;;;;;4.97;2.30;;;;;;;60.98;0.00;99378.72;5054662;28;20476;-71
2023/06/18 09:54:12;;;;;;;7.97;2.30;;;;;;;60.95;0.00;99380.50;5070767;28;20468;-71
2023/06/18 09:56:41;;;;;;;10.30;2.15;;;;;;;61.62;0.00;99382.69;5023409;28;20709;-71
2023/06/18 09:59:19;;;;;;;7.47;2.20;;;;;;;61.74;0.00;99381.50;5040306;28;20044;-70
2023/06/18 10:01:46;;;;;;;8.57;2.33;;;;;;;61.82;0.00;99379.75;5056235;28;20495;-70
2023/06/18 10:04:13;;;;;;;8.88;2.50;;;;;;;61.75;0.00;99373.66;5039911;28;20063;-70
2023/06/18 10:06:56;;;;;;;7.80;2.10;;;;;;;61.94;0.00;99374.84;5073039;28;20063;-71
2023/06/18 10:09:27;;;;;;;8.93;2.95;;;;;;;62.26;0.00;99375.56;5073407;28;20459;-70
2023/06/18 10:11:55;;;;;;;10.35;2.70;;;;;;;62.37;0.00;99369.88;5023461;28;20056;-70
2023/06/18 10:14:23;;;;;;;10.23;2.83;;;;;;;62.46;0.00;99370.44;5053008;28;20136;-70
2023/06/18 10:16:50;;;;;;;;;;;;;;;62.31;0.00;99374.81;5021035;28;20126;-70
2023/06/18 10:19:36;;;;;;;5.77;2.40;;;;;;;62.02;0.00;99363.66;5053286;28;19924;-70
2023/06/18 10:22:03;;;;;;;6.65;2.20;;;;;;;61.41;0.00;99343.84;5036559;28;20057;-70
2023/06/18 10:24:34;;;;;;;6.40;2.10;;;;;;;61.42;0.00;99368.44;5004501;28;20534;-70
2023/06/18 10:27:01;;;;;;;11.20;2.70;;;;;;;60.94;0.00;99349.38;5003705;28;20053;-70
2023/06/18 10:29:29;;;;;;;11.77;2.35;;;;;;;60.62;0.00;99350.56;5037081;28;20519;-70
2023/06/18 10:31:56;;;;;;;6.82;2.60;;;;;;;60.67;0.00;99341.22;5069936;28;20044;-70
2023/06/18 10:34:23;;;;;;;6.27;2.70;;;;;;;60.33;0.00;99349.41;5036724;28;20127;-69
2023/06/18 10:36:54;;;;;;;8.32;2.58;;;;;;;60.21;0.00;99346.91;5029371;28;20065;-71
2023/06/18 10:39:22;;;;;;;10.35;2.70;;;;;;;59.98;0.10;99340.06;4990029;28;20497;-70
2023/06/18 10:41:49;;;;;;;16.45;2.60;;;;;;;59.88;0.00;99355.84;4974721;28;20054;-70
2023/06/18 10:44:15;;;;;;;7.35;2.67;;;;;;;59.97;0.00;99337.69;4955339;28;20640;-70
2023/06/18 10:46:42;;;;;;;4.93;2.80;;;;;;;59.75;0.00;99335.28;4907539;29;20067;-70
2023/06/18 10:49:20;;;;;;;21.15;3.97;;;;;;;59.52;0.00;99333.31;4939684;29;20066;-70
2023/06/18 10:52:22;;;;;;;9.75;2.90;;;;;;;59.84;0.01;99332.28;4939668;29;20055;-70
2023/06/18 10:54:48;;;;;;;4.65;2.60;;;;;;;59.39;0.09;99324.28;4905098;29;20051;-70
2023/06/18 10:57:14;;;;;;;6.85;2.35;;;;;;;58.48;0.31;99323.56;4939391;29;20086;-70
2023/06/18 10:59:43;;;;;;;6.90;2.65;;;;;;;58.00;0.51;99325.63;4954988;28;20138;-70
2023/06/18 11:02:14;;;;;;;7.82;2.75;;;;;;;57.77;0.77;99329.22;4939171;29;20061;-70
2023/06/18 11:04:40;;;;;;;6.40;2.60;;;;;;;57.14;0.56;99329.44;4923337;29;20051;-70
2023/06/18 11:07:27;;;;;;;12.02;2.50;;;;;;;56.22;1.20;99316.41;4943313;28;20046;-70
2023/06/18 11:09:58;;;;;;;11.55;3.33;;;;;;;54.88;1.87;99308.06;4958460;28;20054;-69
2023/06/18 11:12:26;;;;;;;7.55;2.22;;;;;;;53.35;2.16;99323.00;4974631;28;20149;-69
2023/06/18 11:15:11;;;;;;;5.45;2.50;;;;;;;52.01;2.30;99308.09;4962403;28;20144;-69
2023/06/18 11:17:40;;;;;;;5.78;2.40;;;;;;;50.68;3.22;99294.09;5000864;28;20148;-70
2023/06/18 11:20:07;;;;;;;8.85;2.78;;;;;;;49.61;3.79;99282.22;4985272;28;20164;-70
2023/06/18 11:22:35;;;;;;;9.38;3.28;;;;;;;48.86;4.22;99296.53;5029473;28;20049;-69
2023/06/18 11:25:03;;;;;;;8.82;2.92;;;;;;;48.22;4.47;99298.41;5041108;28;20056;-69
2023/06/18 11:27:30;;;;;;;4.03;2.43;;;;;;;47.60;4.95;99292.06;5041657;28;20040;-69
2023/06/18 11:29:57;;;;;;;8.57;2.60;;;;;;;47.06;5.03;99276.66;5024008;28;20766;-69
2023/06/18 11:32:27;;;;;;;11.43;3.50;;;;;;;46.31;5.46;99276.47;5040882;28;20063;-69
2023/06/18 11:34:55;;;;;;;8.23;3.30;;;;;;;45.93;5.67;99275.31;5073180;28;20041;-69
2023/06/18 11:37:30;;;;;;;12.20;4.43;;;;;;;45.35;6.11;99280.41;5056816;28;20055;-70